Time;durP1;ratioP1;P1;durP2;ratioP2;P2;SDS_P1;SDS_P2;PMS_P1;PMS_P2;Temp;Humidity;BMP_temperature;BMP_pressure;BME280_temperature;BME280_humidity;BME280_pressure;Samples;Min_cycle;Max_cycle;Signal;HPM_P1;HPM_P2
2021/09/27 00:00:49;;;;;;;22.23;17.10;;;;;;;21.47;64.59;101166.47;4825234;28;124264;-77
2021/09/27 00:03:16;;;;;;;20.38;17.20;;;;;;;21.41;64.79;101161.69;4841903;28;123144;-77
2021/09/27 00:05:42;;;;;;;23.10;18.43;;;;;;;21.40;65.08;101162.94;4844649;28;122605;-76
2021/09/27 00:08:08;;;;;;;20.07;16.87;;;;;;;21.37;65.07;101163.97;4845566;28;123665;-77
2021/09/27 00:10:43;;;;;;;19.30;16.38;;;;;;;21.35;64.68;101169.31;4834696;28;123583;-77
2021/09/27 00:13:11;;;;;;;20.88;17.60;;;;;;;21.33;64.94;101171.09;4835074;28;123145;-77
2021/09/27 00:15:47;;;;;;;20.52;16.65;;;;;;;21.28;65.08;101167.03;4826897;28;122878;-77
2021/09/27 00:18:14;;;;;;;21.48;17.05;;;;;;;21.24;65.06;101166.56;4840012;28;121868;-77
2021/09/27 00:20:42;;;;;;;20.50;17.33;;;;;;;21.24;65.01;101163.00;4823560;28;126318;-76
2021/09/27 00:23:10;;;;;;;20.30;17.38;;;;;;;21.20;65.53;101159.69;4843868;28;122865;-77
2021/09/27 00:25:36;;;;;;;21.35;15.90;;;;;;;21.18;65.11;101165.78;4839335;28;122091;-76
2021/09/27 00:28:03;;;;;;;19.85;15.68;;;;;;;21.15;64.76;101161.25;4834451;28;122106;-77
2021/09/27 00:30:28;;;;;;;18.13;15.73;;;;;;;21.12;65.17;101159.47;4843517;28;122238;-77
2021/09/27 00:32:54;;;;;;;20.30;16.42;;;;;;;21.04;65.22;101147.31;4839345;28;122642;-77
2021/09/27 00:35:24;;;;;;;18.65;16.08;;;;;;;21.09;65.48;101157.72;4843088;28;122284;-77
2021/09/27 00:37:51;;;;;;;18.97;15.77;;;;;;;21.07;65.12;101161.03;4841966;28;122199;-77
2021/09/27 00:40:19;;;;;;;21.15;16.42;;;;;;;21.02;65.35;101155.44;4839564;28;125510;-77
2021/09/27 00:42:47;;;;;;;20.27;16.05;;;;;;;21.03;65.43;101156.97;4838394;28;121575;-77
2021/09/27 00:45:17;;;;;;;19.30;15.93;;;;;;;20.99;65.46;101167.63;4847618;28;122160;-76
2021/09/27 00:47:43;;;;;;;18.43;16.07;;;;;;;20.96;64.82;101163.06;4865821;28;122144;-77
2021/09/27 00:50:11;;;;;;;18.97;16.13;;;;;;;20.98;64.83;101168.91;4849636;28;121886;-77
2021/09/27 00:52:38;;;;;;;18.13;15.83;;;;;;;20.96;64.82;101175.00;4843589;28;121924;-77
2021/09/27 00:55:09;;;;;;;18.58;15.65;;;;;;;20.95;64.78;101179.06;4846289;28;122209;-77
2021/09/27 00:57:35;;;;;;;19.05;15.60;;;;;;;20.93;64.85;101169.69;4837357;28;121664;-76
2021/09/27 01:00:01;;;;;;;17.67;14.93;;;;;;;20.92;64.82;101173.75;4847231;28;123566;-76
2021/09/27 01:02:27;;;;;;;19.33;15.48;;;;;;;20.88;65.35;101171.22;4840492;28;121673;-77
2021/09/27 01:04:53;;;;;;;17.53;15.67;;;;;;;20.87;64.81;101166.16;4840071;28;122232;-76
2021/09/27 01:07:37;;;;;;;19.98;15.77;;;;;;;20.79;65.29;101163.88;4817030;28;125320;-76
2021/09/27 01:10:06;;;;;;;18.67;15.90;;;;;;;20.82;65.10;101165.66;4837308;28;122458;-77
2021/09/27 01:12:53;;;;;;;19.97;16.60;;;;;;;20.81;64.90;101164.13;4824263;28;123732;-76
2021/09/27 01:15:43;;;;;;;22.15;16.92;;;;;;;20.74;64.82;101150.72;4841448;28;122984;-77
2021/09/27 01:18:35;;;;;;;17.10;15.00;;;;;;;20.77;64.53;101157.28;4856537;28;123020;-77
2021/09/27 01:21:07;;;;;;;18.75;15.80;;;;;;;20.72;64.83;101147.66;4851601;28;125547;-77
2021/09/27 01:24:10;;;;;;;18.83;15.50;;;;;;;20.72;64.48;101155.28;4845680;28;122933;-77
2021/09/27 01:26:54;;;;;;;20.27;15.80;;;;;;;20.68;65.02;101158.31;4845431;28;121884;-77
2021/09/27 01:30:01;;;;;;;17.77;15.25;;;;;;;20.64;64.98;101151.50;4841188;28;121974;-77
2021/09/27 01:32:36;;;;;;;20.43;15.80;;;;;;;20.61;65.03;101155.31;4837979;28;122120;-77
2021/09/27 01:35:17;;;;;;;21.63;15.48;;;;;;;20.61;64.64;101156.06;4825631;28;123993;-77
2021/09/27 01:37:47;;;;;;;18.52;15.90;;;;;;;20.61;64.87;101158.09;4845564;28;123368;-77
2021/09/27 01:40:25;;;;;;;20.63;16.45;;;;;;;20.58;64.82;101151.47;4848666;28;121496;-77
2021/09/27 01:43:07;;;;;;;19.85;15.82;;;;;;;20.57;64.61;101158.31;4844030;28;124180;-77
2021/09/27 01:46:02;;;;;;;22.00;17.73;;;;;;;20.58;65.28;101168.22;4840010;28;122052;-77
2021/09/27 01:48:41;;;;;;;19.15;17.02;;;;;;;20.59;65.69;101172.53;4830561;28;121951;-77
2021/09/27 01:51:28;;;;;;;20.05;17.40;;;;;;;20.59;65.65;101169.75;4838727;28;121961;-77
2021/09/27 01:54:05;;;;;;;20.10;16.30;;;;;;;20.61;65.68;101167.22;4823067;28;121726;-76
2021/09/27 01:56:38;;;;;;;22.27;16.90;;;;;;;20.61;66.11;101158.09;4836869;28;121671;-76
2021/09/27 01:59:33;;;;;;;22.67;15.82;;;;;;;20.61;65.36;101172.03;4838175;28;122015;-76
2021/09/27 02:02:32;;;;;;;19.80;15.00;;;;;;;20.63;65.15;101177.84;4839490;28;121886;-77
2021/09/27 02:05:13;;;;;;;17.70;14.48;;;;;;;20.60;64.83;101167.72;4816459;28;121795;-76
2021/09/27 02:07:52;;;;;;;19.83;14.90;;;;;;;20.62;64.83;101163.16;4846024;28;121828;-77
2021/09/27 02:10:29;;;;;;;18.60;15.32;;;;;;;20.63;65.64;101161.88;4844829;28;122886;-76
2021/09/27 02:13:30;;;;;;;17.58;14.60;;;;;;;20.64;64.94;101159.84;4852180;28;121929;-76
2021/09/27 02:15:59;;;;;;;20.17;17.70;;;;;;;20.64;65.51;101154.28;4849645;28;121863;-77
2021/09/27 02:18:45;;;;;;;20.15;16.13;;;;;;;20.66;65.50;101146.94;4837530;28;124021;-77
2021/09/27 02:21:17;;;;;;;19.88;16.73;;;;;;;20.64;65.34;101143.91;4849880;28;123043;-77
2021/09/27 02:24:17;;;;;;;20.35;16.60;;;;;;;20.67;65.67;101148.44;4864409;28;122023;-77
2021/09/27 02:26:48;;;;;;;19.23;16.33;;;;;;;20.66;65.63;101146.94;4837850;28;122042;-77
2021/09/27 02:29:14;;;;;;;19.07;15.83;;;;;;;20.69;65.56;101147.94;4858379;28;121700;-76
2021/09/27 02:31:56;;;;;;;22.23;17.20;;;;;;;20.70;65.80;101139.06;4854210;28;121818;-76
2021/09/27 02:34:52;;;;;;;19.05;15.93;;;;;;;20.70;65.22;101139.06;4847430;28;121660;-76
2021/09/27 02:37:44;;;;;;;22.40;18.03;;;;;;;20.70;65.35;101135.50;4849747;28;121558;-77
2021/09/27 02:40:42;;;;;;;23.00;17.08;;;;;;;20.72;65.54;101130.94;4839861;28;121863;-76
2021/09/27 02:43:10;;;;;;;21.97;16.83;;;;;;;20.73;65.27;101132.47;4823427;28;123419;-76
2021/09/27 02:45:38;;;;;;;20.65;17.75;;;;;;;20.70;65.59;101116.75;4834741;28;121570;-76
2021/09/27 02:48:17;;;;;;;22.63;17.80;;;;;;;20.77;65.70;101130.16;4839186;28;123717;-76
2021/09/27 02:50:47;;;;;;;20.75;17.80;;;;;;;20.77;65.92;101132.94;4848469;28;122544;-76
2021/09/27 02:53:14;;;;;;;24.25;18.02;;;;;;;20.79;65.90;101133.19;4841453;28;123448;-76
2021/09/27 02:55:40;;;;;;;22.40;17.35;;;;;;;20.80;65.88;101133.97;4835957;28;123295;-76
2021/09/27 02:58:20;;;;;;;22.57;17.27;;;;;;;20.74;65.44;101114.47;4838036;28;122104;-76
2021/09/27 03:01:08;;;;;;;23.02;19.27;;;;;;;20.83;65.88;101128.16;4839253;28;121715;-76
2021/09/27 03:04:00;;;;;;;21.45;18.45;;;;;;;20.76;65.76;101123.06;4852545;28;124523;-76
2021/09/27 03:06:54;;;;;;;27.25;19.30;;;;;;;20.88;66.26;101140.53;4836079;28;122107;-76
2021/09/27 03:09:26;;;;;;;22.23;19.50;;;;;;;20.90;66.38;101137.25;4841062;28;122074;-76
2021/09/27 03:12:22;;;;;;;28.30;22.88;;;;;;;20.92;66.23;101146.63;4839757;28;122094;-76
2021/09/27 03:15:18;;;;;;;27.73;23.48;;;;;;;20.94;66.60;101132.91;4846751;28;121938;-76
2021/09/27 03:17:58;;;;;;;29.43;23.73;;;;;;;20.97;66.15;101122.75;4826543;28;123706;-76
2021/09/27 03:20:30;;;;;;;26.13;22.52;;;;;;;20.98;65.95;101127.06;4808895;28;122540;-76
2021/09/27 03:23:37;;;;;;;24.10;19.80;;;;;;;21.01;66.01;101117.69;4868441;28;121712;-76
2021/09/27 03:26:06;;;;;;;22.33;18.33;;;;;;;20.97;65.84;101112.38;4810051;29;122861;-76
2021/09/27 03:28:40;;;;;;;27.30;20.77;;;;;;;20.99;65.19;101118.19;4840252;28;121779;-76
2021/09/27 03:31:43;;;;;;;28.20;22.00;;;;;;;21.00;65.94;101125.28;4864639;28;122174;-76
2021/09/27 03:34:27;;;;;;;29.35;23.02;;;;;;;20.95;66.16;101117.69;4812881;28;122142;-76
2021/09/27 03:37:05;;;;;;;29.50;23.10;;;;;;;21.01;66.21;101124.00;4830537;28;121710;-76
2021/09/27 03:40:00;;;;;;;29.63;23.00;;;;;;;21.05;66.12;101129.31;4845312;28;123742;-76
2021/09/27 03:42:56;;;;;;;31.10;24.43;;;;;;;21.07;66.42;101130.34;4847276;28;121747;-76
2021/09/27 03:45:27;;;;;;;32.95;26.23;;;;;;;21.08;65.95;101120.72;4846879;28;121913;-76
2021/09/27 03:48:09;;;;;;;28.90;23.67;;;;;;;21.09;66.42;101125.00;4826994;28;122650;-76
2021/09/27 03:50:49;;;;;;;23.85;20.85;;;;;;;21.10;65.88;101120.19;4843463;28;121742;-76
2021/09/27 03:53:39;;;;;;;24.53;20.40;;;;;;;21.10;65.52;101117.41;4838775;28;122855;-76
2021/09/27 03:56:16;;;;;;;29.77;24.98;;;;;;;21.08;65.39;101111.59;4839523;28;123283;-76
2021/09/27 03:58:54;;;;;;;30.92;25.35;;;;;;;21.03;65.91;101109.56;4847555;28;121727;-76
2021/09/27 04:01:31;;;;;;;31.02;24.55;;;;;;;21.05;65.72;101118.16;4843524;28;122233;-76
2021/09/27 04:04:25;;;;;;;28.65;24.10;;;;;;;21.07;65.98;101124.78;4849640;28;122496;-76
2021/09/27 04:07:02;;;;;;;35.72;27.73;;;;;;;21.08;66.22;101119.94;4849717;28;121779;-76
2021/09/27 04:09:40;;;;;;;34.92;27.50;;;;;;;21.10;65.99;101111.81;4820434;28;123748;-76
2021/09/27 04:12:23;;;;;;;32.67;27.10;;;;;;;21.11;66.82;101114.09;4843063;28;122473;-76
2021/09/27 04:14:55;;;;;;;34.08;26.98;;;;;;;21.12;66.02;101114.84;4842836;28;122116;-76
2021/09/27 04:17:56;;;;;;;31.92;25.65;;;;;;;21.14;66.42;101117.88;4839648;28;122688;-76
2021/09/27 04:20:27;;;;;;;36.05;27.80;;;;;;;21.14;66.22;101110.28;4813767;28;122490;-76
2021/09/27 04:23:36;;;;;;;33.70;27.27;;;;;;;21.16;65.97;101109.75;4847791;28;121720;-76
2021/09/27 04:26:40;;;;;;;35.70;27.35;;;;;;;21.14;66.12;101098.38;4822440;28;122217;-76
2021/09/27 04:29:20;;;;;;;35.33;27.30;;;;;;;21.14;65.82;101095.56;4838645;28;121860;-76
2021/09/27 04:31:49;;;;;;;38.75;30.17;;;;;;;21.13;65.89;101094.06;4859329;28;122958;-76
2021/09/27 04:34:46;;;;;;;40.17;31.87;;;;;;;21.13;66.40;101099.63;4824645;28;122527;-76
2021/09/27 04:37:17;;;;;;;39.87;30.80;;;;;;;21.09;66.06;101088.00;4848411;28;121862;-76
2021/09/27 04:39:44;;;;;;;39.60;30.55;;;;;;;21.12;66.18;101084.19;4843693;28;121962;-76
2021/09/27 04:42:24;;;;;;;39.28;30.90;;;;;;;21.09;66.66;101082.41;4844927;28;122317;-76
2021/09/27 04:45:13;;;;;;;37.90;29.00;;;;;;;21.13;66.24;101077.31;4849388;28;123175;-76
2021/09/27 04:48:07;;;;;;;38.20;28.97;;;;;;;21.11;66.73;101075.06;4858215;28;125335;-76
2021/09/27 04:51:09;;;;;;;42.08;31.92;;;;;;;21.19;66.66;101080.84;4829582;28;122201;-76
2021/09/27 04:53:38;;;;;;;39.83;29.73;;;;;;;21.19;66.62;101078.03;4846625;28;121804;-76
2021/09/27 04:56:38;;;;;;;38.40;29.63;;;;;;;21.21;66.80;101078.28;4860158;28;122221;-77
2021/09/27 04:59:32;;;;;;;41.25;31.52;;;;;;;21.22;66.82;101076.25;4845473;28;122151;-76
2021/09/27 05:02:22;;;;;;;39.67;30.15;;;;;;;21.23;66.79;101088.94;4840101;28;122626;-76
2021/09/27 05:04:52;;;;;;;40.50;30.98;;;;;;;21.23;66.59;101078.53;4846720;28;121890;-76
2021/09/27 05:07:48;;;;;;;45.67;33.37;;;;;;;21.27;67.00;101084.63;4841090;28;122219;-76
2021/09/27 05:10:33;;;;;;;45.43;33.60;;;;;;;21.27;66.57;101070.66;4835722;28;122086;-76
2021/09/27 05:13:11;;;;;;;43.15;33.75;;;;;;;21.27;67.04;101072.69;4845217;28;121928;-76
2021/09/27 05:16:06;;;;;;;41.80;31.25;;;;;;;21.29;66.72;101076.50;4819241;28;122244;-76
2021/09/27 05:18:47;;;;;;;43.78;33.33;;;;;;;21.31;66.49;101065.59;4835874;28;122621;-76
2021/09/27 05:21:18;;;;;;;43.65;33.15;;;;;;;21.31;66.88;101062.81;4840917;28;122194;-76
2021/09/27 05:24:12;;;;;;;55.38;40.53;;;;;;;21.33;66.69;101057.47;4826699;28;125359;-75
2021/09/27 05:26:47;;;;;;;53.20;39.10;;;;;;;21.34;67.15;101064.56;4850876;28;122582;-76
2021/09/27 05:29:26;;;;;;;58.13;42.33;;;;;;;21.39;66.75;101063.00;4838516;28;122293;-76
2021/09/27 05:32:06;;;;;;;86.30;48.08;;;;;;;21.41;67.32;101061.22;4838906;28;122648;-76
2021/09/27 05:35:03;;;;;;;107.03;48.33;;;;;;;21.43;66.81;101058.66;4837447;28;122148;-76
2021/09/27 05:37:53;;;;;;;84.65;45.08;;;;;;;21.45;67.19;101058.91;4840765;28;122250;-76
2021/09/27 05:41:06;;;;;;;64.73;43.97;;;;;;;21.48;66.74;101061.94;4853953;28;125185;-76
2021/09/27 05:43:41;;;;;;;62.53;44.10;;;;;;;21.50;66.96;101070.53;4841151;28;123619;-76
2021/09/27 05:46:15;;;;;;;59.97;44.73;;;;;;;21.52;66.76;101071.53;4838264;28;122756;-76
2021/09/27 05:49:09;;;;;;;61.33;45.27;;;;;;;21.52;66.75;101057.56;4844452;28;123155;-76
2021/09/27 05:51:47;;;;;;;65.00;44.90;;;;;;;21.54;67.00;101054.28;4838751;28;125964;-76
2021/09/27 05:54:26;;;;;;;64.05;44.90;;;;;;;21.58;67.11;101068.72;4841397;28;122649;-76
2021/09/27 05:57:31;;;;;;;65.17;46.07;;;;;;;21.59;67.00;101070.25;4846356;28;122298;-77
2021/09/27 06:00:20;;;;;;;61.25;45.08;;;;;;;21.61;66.88;101064.91;4834220;28;123921;-77
2021/09/27 06:03:00;;;;;;;65.32;46.38;;;;;;;21.62;67.24;101058.03;4849527;28;122454;-76
2021/09/27 06:05:30;;;;;;;65.18;47.40;;;;;;;21.62;67.18;101063.63;4836695;28;121718;-76
2021/09/27 06:07:59;;;;;;;64.07;46.53;;;;;;;21.62;67.42;101049.66;4836779;28;122506;-76
2021/09/27 06:10:43;;;;;;;67.77;48.43;;;;;;;21.64;67.00;101042.28;4839708;28;124261;-77
2021/09/27 06:13:26;;;;;;;64.30;47.58;;;;;;;21.67;66.98;101046.81;4842339;28;122063;-76
2021/09/27 06:15:53;;;;;;;85.32;49.72;;;;;;;21.67;67.40;101035.66;4820498;28;123654;-76
2021/09/27 06:18:34;;;;;;;75.55;47.78;;;;;;;21.70;nan;101042.22;4810398;28;122019;-76
2021/09/27 06:21:18;;;;;;;64.57;47.90;;;;;;;21.72;66.54;101045.25;4839777;28;123292;-76
2021/09/27 06:24:13;;;;;;;63.60;46.47;;;;;;;21.74;66.55;101039.91;4843657;28;122697;-76
2021/09/27 06:26:59;;;;;;;62.13;47.55;;;;;;;21.73;66.47;101032.81;4842166;28;121774;-76
2021/09/27 06:30:07;;;;;;;62.17;45.60;;;;;;;21.74;66.42;101051.06;4829871;28;122130;-76
2021/09/27 06:32:51;;;;;;;66.57;47.13;;;;;;;21.79;66.29;101053.09;4848162;28;122021;-77
2021/09/27 06:35:23;;;;;;;61.80;46.72;;;;;;;21.78;66.68;101040.41;4843579;28;123315;-77
2021/09/27 06:37:50;;;;;;;61.03;45.83;;;;;;;21.81;66.58;101039.38;4834648;28;122954;-76
2021/09/27 06:40:15;;;;;;;67.57;47.60;;;;;;;;;;4811540;28;122120;-76
2021/09/27 06:42:41;;;;;;;57.60;43.73;;;;;;;21.82;66.61;101021.34;4839550;28;123297;-76
2021/09/27 06:45:09;;;;;;;61.03;46.38;;;;;;;21.84;66.61;101018.78;4839618;28;125609;-76
2021/09/27 06:47:35;;;;;;;63.37;47.00;;;;;;;21.89;67.01;101029.13;4842709;28;122865;-76
2021/09/27 06:50:01;;;;;;;63.43;46.53;;;;;;;21.91;66.59;101025.81;4840774;28;122717;-76
2021/09/27 06:52:27;;;;;;;66.33;48.67;;;;;;;21.90;66.76;101018.72;4842921;28;122966;-77
2021/09/27 06:54:53;;;;;;;65.43;47.42;;;;;;;21.93;66.61;101029.59;4836913;28;121931;-76
2021/09/27 06:57:19;;;;;;;62.55;46.90;;;;;;;21.95;66.97;101024.25;4836628;28;122470;-76
2021/09/27 06:59:44;;;;;;;68.60;48.53;;;;;;;21.97;66.58;101026.50;4821796;28;121967;-76
2021/09/27 07:02:10;;;;;;;62.17;47.15;;;;;;;21.95;66.79;101013.06;4833792;28;125369;-76
2021/09/27 07:04:35;;;;;;;68.30;49.40;;;;;;;21.99;66.67;101027.50;4832406;28;122945;-75
2021/09/27 07:07:02;;;;;;;65.60;48.17;;;;;;;22.00;66.50;101029.03;4832176;28;123153;-76
2021/09/27 07:09:28;;;;;;;73.28;50.80;;;;;;;21.99;67.06;101021.91;4835669;28;122203;-76
2021/09/27 07:11:54;;;;;;;72.43;51.63;;;;;;;22.05;66.35;101031.06;4841865;28;121959;-76
2021/09/27 07:14:19;;;;;;;70.85;51.17;;;;;;;22.05;67.25;101021.91;4831380;28;122232;-76
2021/09/27 07:16:45;;;;;;;70.68;50.13;;;;;;;22.07;66.95;101024.19;4823819;28;125202;-75
2021/09/27 07:19:14;;;;;;;74.40;51.92;;;;;;;22.07;66.56;101022.16;4858303;28;122508;-75
2021/09/27 07:21:43;;;;;;;71.22;51.42;;;;;;;22.06;67.07;101017.84;4841401;28;123220;-76
2021/09/27 07:24:10;;;;;;;71.97;51.03;;;;;;;22.10;67.24;101014.75;4852144;28;123185;-76
2021/09/27 07:26:36;;;;;;;80.18;57.40;;;;;;;22.10;66.68;101021.09;4821575;28;122287;-76
2021/09/27 07:29:04;;;;;;;76.32;53.72;;;;;;;22.13;67.03;101013.72;4826432;28;122867;-76
2021/09/27 07:31:31;;;;;;;74.22;51.40;;;;;;;22.16;66.84;101021.03;4844919;28;122160;-76
2021/09/27 07:33:58;;;;;;;75.93;54.28;;;;;;;22.15;67.15;101014.69;4863802;28;122528;-76
2021/09/27 07:36:25;;;;;;;84.07;57.42;;;;;;;22.18;67.02;101016.44;4830372;28;122243;-76
2021/09/27 07:38:51;;;;;;;83.88;56.95;;;;;;;22.23;67.40;101023.25;4821711;28;122481;-76
2021/09/27 07:41:17;;;;;;;86.13;57.85;;;;;;;22.24;67.63;101019.94;4842441;28;123159;-76
2021/09/27 07:43:42;;;;;;;91.40;61.47;;;;;;;22.26;67.29;101019.44;4844993;28;123544;-76
2021/09/27 07:46:08;;;;;;;90.68;59.88;;;;;;;22.24;67.18;101011.56;4841811;28;122469;-75
2021/09/27 07:48:34;;;;;;;93.13;61.03;;;;;;;22.30;67.09;101017.84;4833918;28;123908;-76
2021/09/27 07:51:00;;;;;;;94.07;63.08;;;;;;;22.30;67.50;101023.44;4838578;28;121973;-76
2021/09/27 07:53:26;;;;;;;100.05;64.80;;;;;;;22.32;67.67;101022.91;4820542;28;123692;-76
2021/09/27 07:55:52;;;;;;;87.38;60.33;;;;;;;22.35;67.14;101019.81;4840916;28;122712;-76
2021/09/27 07:58:19;;;;;;;94.18;63.35;;;;;;;22.39;67.61;101022.31;4838289;28;123372;-75
2021/09/27 08:00:47;;;;;;;101.72;68.13;;;;;;;22.41;67.02;101024.59;4840712;28;122607;-76
2021/09/27 08:03:13;;;;;;;111.53;71.25;;;;;;;22.41;67.29;101021.78;4841705;28;122482;-76
2021/09/27 08:05:40;;;;;;;94.32;65.28;;;;;;;22.45;66.78;101023.00;4845586;28;122700;-75
2021/09/27 08:08:06;;;;;;;98.77;65.60;;;;;;;22.46;67.29;101026.56;4844238;28;123303;-76
2021/09/27 08:10:34;;;;;;;100.43;66.40;;;;;;;22.43;67.21;101014.38;4810540;28;124137;-76
2021/09/27 08:13:00;;;;;;;93.53;63.73;;;;;;;22.48;66.98;101021.22;4842755;28;122228;-76
2021/09/27 08:15:32;;;;;;;102.90;67.80;;;;;;;22.54;67.47;101019.13;4845199;28;122151;-76
2021/09/27 08:17:58;;;;;;;115.80;75.63;;;;;;;22.56;67.77;101020.09;4839553;28;122516;-76
2021/09/27 08:20:33;;;;;;;123.10;77.05;;;;;;;22.57;67.53;101018.81;4828443;28;123672;-76
2021/09/27 08:22:59;;;;;;;94.50;65.32;;;;;;;22.58;nan;101019.56;4840532;28;125048;-75
2021/09/27 08:25:26;;;;;;;105.18;67.45;;;;;;;22.64;67.42;101023.06;4831627;28;122933;-76
2021/09/27 08:27:53;;;;;;;114.20;71.93;;;;;;;22.66;67.35;101015.66;4839550;28;122500;-76
2021/09/27 08:30:23;;;;;;;93.00;63.67;;;;;;;22.64;66.48;101017.47;4835976;28;122766;-75
2021/09/27 08:32:49;;;;;;;98.80;65.57;;;;;;;22.70;67.35;101022.97;4840745;28;122640;-76
2021/09/27 08:35:16;;;;;;;109.32;70.03;;;;;;;22.78;67.24;101037.91;4829256;28;122848;-76
2021/09/27 08:37:43;;;;;;;100.22;66.97;;;;;;;22.82;67.12;101038.38;4848288;28;123120;-75
2021/09/27 08:40:29;;;;;;;118.78;75.68;;;;;;;22.89;67.54;101041.31;4838639;28;122427;-76
2021/09/27 08:42:56;;;;;;;105.03;69.43;;;;;;;22.94;67.07;101036.94;4823770;28;123217;-76
2021/09/27 08:45:27;;;;;;;121.63;76.03;;;;;;;22.99;67.56;101035.38;4821599;28;122752;-76
2021/09/27 08:48:18;;;;;;;105.28;70.07;;;;;;;22.98;67.41;101028.25;4844829;28;122237;-75
2021/09/27 08:50:44;;;;;;;104.47;69.87;;;;;;;22.97;67.00;101035.91;4828407;28;125767;-76
2021/09/27 08:53:38;;;;;;;126.88;79.13;;;;;;;23.00;67.26;101037.63;4851153;28;122732;-76
2021/09/27 08:56:24;;;;;;;93.60;64.15;;;;;;;22.98;66.62;101040.22;4819016;28;122392;-76
2021/09/27 08:59:05;;;;;;;100.88;66.55;;;;;;;22.99;67.00;101035.38;4838796;28;123291;-76
2021/09/27 09:01:58;;;;;;;102.50;67.35;;;;;;;22.99;66.88;101035.38;4831875;28;122029;-76
2021/09/27 09:04:43;;;;;;;99.68;67.13;;;;;;;22.94;67.14;101029.31;4818753;28;124148;-76
2021/09/27 09:07:14;;;;;;;100.53;67.93;;;;;;;22.96;67.08;101042.78;4843043;28;122407;-76
2021/09/27 09:09:48;;;;;;;98.00;64.88;;;;;;;22.93;66.99;101036.19;4833248;28;122533;-76
2021/09/27 09:12:39;;;;;;;107.75;70.05;;;;;;;23.00;67.16;101039.69;4822426;28;121554;-76
2021/09/27 09:15:17;;;;;;;126.57;79.77;;;;;;;22.96;67.84;101037.19;4817245;28;122691;-76
2021/09/27 09:18:05;;;;;;;114.43;74.40;;;;;;;22.98;67.65;101039.44;4811161;28;122538;-76
2021/09/27 09:20:51;;;;;;;132.40;78.68;;;;;;;23.00;67.38;101040.44;4842213;28;122531;-76
2021/09/27 09:23:28;;;;;;;130.35;79.18;;;;;;;23.01;67.39;101033.56;4861683;28;122435;-76
2021/09/27 09:25:55;;;;;;;98.47;65.55;;;;;;;23.03;67.60;101033.78;4841020;28;122661;-76
2021/09/27 09:28:22;;;;;;;108.90;70.85;;;;;;;23.04;67.69;101035.28;4836042;28;122620;-76
2021/09/27 09:31:04;;;;;;;120.22;76.18;;;;;;;23.05;68.13;101036.03;4811060;28;125511;-76
2021/09/27 09:33:54;;;;;;;104.88;70.13;;;;;;;23.09;67.73;101028.09;4844486;28;122520;-76
2021/09/27 09:36:40;;;;;;;112.47;72.40;;;;;;;23.08;67.45;101029.38;4843985;28;122747;-75
2021/09/27 09:39:11;;;;;;;125.05;77.35;;;;;;;23.13;68.06;101032.09;4841481;28;122340;-76
2021/09/27 09:41:48;;;;;;;111.80;73.88;;;;;;;23.14;67.29;101019.63;4817961;28;124978;-76
2021/09/27 09:44:35;;;;;;;115.10;74.10;;;;;;;23.14;67.46;101018.88;4819691;28;122478;-76
2021/09/27 09:47:11;;;;;;;110.45;72.78;;;;;;;23.13;66.94;101020.91;4836709;28;123146;-76
2021/09/27 09:50:01;;;;;;;111.23;72.03;;;;;;;23.17;67.27;101031.78;4827215;28;123897;-76
2021/09/27 09:52:41;;;;;;;119.70;75.47;;;;;;;23.17;67.67;101029.00;4849273;28;122079;-76
2021/09/27 09:55:18;;;;;;;116.28;74.32;;;;;;;23.19;67.46;101021.59;4824568;28;124012;-76
2021/09/27 09:57:55;;;;;;;115.00;71.77;;;;;;;23.17;67.50;101007.38;4831746;28;122879;-76
2021/09/27 10:00:47;;;;;;;111.85;71.15;;;;;;;23.20;67.39;101019.56;4828494;28;122518;-76
2021/09/27 10:03:17;;;;;;;110.00;71.90;;;;;;;23.27;67.13;101024.53;4811364;28;124593;-76
2021/09/27 10:05:53;;;;;;;124.72;76.30;;;;;;;23.28;67.89;101018.41;4835630;28;122790;-76
2021/09/27 10:08:26;;;;;;;128.05;78.30;;;;;;;23.33;67.53;101018.84;4841680;28;122468;-76
2021/09/27 10:11:03;;;;;;;105.00;69.70;;;;;;;23.41;nan;101025.34;4838379;28;122186;-76
2021/09/27 10:13:34;;;;;;;108.33;70.17;;;;;;;23.44;67.53;101018.69;4823207;28;123281;-74
2021/09/27 10:16:13;;;;;;;108.43;70.67;;;;;;;23.48;67.33;101007.94;4816979;28;124154;-75
2021/09/27 10:18:41;;;;;;;102.45;70.25;;;;;;;23.53;66.91;101015.50;4834203;28;122644;-74
2021/09/27 10:21:10;;;;;;;117.83;78.27;;;;;;;23.56;67.35;101020.06;4817000;28;122152;-75
2021/09/27 10:23:44;;;;;;;98.13;66.70;;;;;;;23.58;66.92;101018.22;4832669;28;123038;-76
2021/09/27 10:26:18;;;;;;;94.47;67.15;;;;;;;23.60;66.91;101014.88;4840235;28;123003;-76
2021/09/27 10:28:46;;;;;;;96.37;65.53;;;;;;;23.63;66.49;101013.06;4833988;28;122260;-76
2021/09/27 10:31:12;;;;;;;108.35;70.93;;;;;;;23.61;67.18;101010.81;4805989;28;123317;-76
2021/09/27 10:33:50;;;;;;;99.70;69.53;;;;;;;23.70;66.83;101007.63;4835235;28;122003;-76
2021/09/27 10:36:42;;;;;;;83.53;62.13;;;;;;;23.62;66.25;100989.16;4809454;28;123057;-76
2021/09/27 10:39:11;;;;;;;84.82;61.33;;;;;;;23.82;66.23;101008.16;4834034;28;122312;-76
2021/09/27 10:41:49;;;;;;;80.33;59.07;;;;;;;23.84;66.38;101000.72;4832655;28;122710;-76
2021/09/27 10:44:18;;;;;;;70.25;54.40;;;;;;;23.82;65.71;100989.31;4832409;28;125206;-76
2021/09/27 10:46:52;;;;;;;69.20;51.22;;;;;;;23.84;65.69;100997.94;4842640;28;123103;-76
2021/09/27 10:49:56;;;;;;;64.22;50.83;;;;;;;23.86;66.04;100980.59;4848191;28;122439;-76
2021/09/27 10:52:35;;;;;;;71.03;52.97;;;;;;;23.92;66.57;100977.72;4780944;28;124120;-76
2021/09/27 10:55:14;;;;;;;67.10;51.77;;;;;;;23.95;66.27;100983.00;4838007;28;122254;-76
2021/09/27 10:57:52;;;;;;;72.10;54.33;;;;;;;23.99;66.23;100983.41;4841509;28;123147;-76
2021/09/27 11:00:39;;;;;;;70.68;53.33;;;;;;;24.06;66.71;100979.22;4805263;28;123224;-76
2021/09/27 11:03:08;;;;;;;72.40;52.47;;;;;;;24.10;65.74;100993.66;4854396;28;122651;-76
2021/09/27 11:05:43;;;;;;;65.73;51.17;;;;;;;24.10;66.08;100990.84;4834514;28;122247;-76
2021/09/27 11:08:14;;;;;;;63.03;50.10;;;;;;;24.08;65.87;100990.63;4839569;28;122623;-76
2021/09/27 11:10:45;;;;;;;65.87;50.67;;;;;;;24.09;65.76;100992.91;4837993;28;122048;-76
2021/09/27 11:13:34;;;;;;;66.70;52.42;;;;;;;24.10;66.08;100988.81;4837286;28;124912;-77
2021/09/27 11:16:12;;;;;;;59.20;47.08;;;;;;;24.13;65.25;100995.38;4833833;28;122678;-76
2021/09/27 11:18:47;;;;;;;63.70;49.58;;;;;;;24.15;65.91;100990.00;4819756;28;123318;-76
2021/09/27 11:21:18;;;;;;;66.35;51.13;;;;;;;24.18;65.52;100986.13;4837574;28;123252;-76
2021/09/27 11:23:46;;;;;;;71.15;52.83;;;;;;;24.21;65.71;100984.28;4840420;28;122636;-76
2021/09/27 11:26:14;;;;;;;63.83;50.70;;;;;;;24.26;65.52;100983.44;4807542;28;123324;-76
2021/09/27 11:28:59;;;;;;;68.80;52.80;;;;;;;24.30;65.26;100973.41;4834158;28;122372;-76
2021/09/27 11:31:28;;;;;;;67.75;54.00;;;;;;;24.33;65.16;100980.75;4825187;28;122722;-76
2021/09/27 11:34:17;;;;;;;61.78;50.58;;;;;;;24.33;64.50;100977.94;4821459;28;122671;-76
2021/09/27 11:36:46;;;;;;;63.28;52.38;;;;;;;24.32;64.55;100973.63;4842213;28;122133;-76
2021/09/27 11:39:15;;;;;;;62.83;50.87;;;;;;;24.33;64.56;100974.38;4827778;28;122621;-76
2021/09/27 11:42:30;;;;;;;61.70;52.53;;;;;;;24.32;64.57;100968.03;4828095;28;124503;-77
2021/09/27 11:45:00;;;;;;;59.97;48.87;;;;;;;24.33;64.81;100969.53;4841179;28;123314;-76
2021/09/27 11:47:41;;;;;;;63.10;53.85;;;;;;;24.34;64.43;100962.63;4833209;28;124997;-76